Time;durP1;ratioP1;P1;durP2;ratioP2;P2;SDS_P1;SDS_P2;PMS_P1;PMS_P2;Temp;Humidity;BMP_temperature;BMP_pressure;BME280_temperature;BME280_humidity;BME280_pressure;Samples;Min_cycle;Max_cycle;Signal;HPM_P1;HPM_P2
2022/05/17 00:00:54;;;;;;;19.83;8.05;;;15.10;99.90;;;;;;5020086;28;20086;-48
2022/05/17 00:03:20;;;;;;;21.67;9.52;;;15.10;99.90;;;;;;5022230;28;20037;-46
2022/05/17 00:05:47;;;;;;;24.83;10.35;;;15.10;99.90;;;;;;5018916;28;20195;-47
2022/05/17 00:08:14;;;;;;;20.00;10.30;;;15.00;99.90;;;;;;5007823;28;20071;-48
2022/05/17 00:10:41;;;;;;;22.17;9.07;;;15.00;99.90;;;;;;5026252;28;20037;-46
2022/05/17 00:13:07;;;;;;;20.60;9.18;;;15.00;99.90;;;;;;5013377;28;20597;-50
2022/05/17 00:15:34;;;;;;;28.73;9.70;;;15.00;99.90;;;;;;5019237;28;20041;-47
2022/05/17 00:18:01;;;;;;;22.65;9.65;;;15.00;99.90;;;;;;5022816;28;20591;-46
2022/05/17 00:20:27;;;;;;;22.35;9.35;;;15.00;99.90;;;;;;5018166;28;20045;-46
2022/05/17 00:22:53;;;;;;;22.55;8.60;;;15.00;99.90;;;;;;4992866;28;20041;-48
2022/05/17 00:25:21;;;;;;;23.15;9.07;;;15.00;99.90;;;;;;5018863;28;20049;-46
2022/05/17 00:27:47;;;;;;;23.27;9.27;;;15.00;99.90;;;;;;5025376;28;20513;-47
2022/05/17 00:30:14;;;;;;;27.30;9.98;;;15.00;99.90;;;;;;4991147;28;20107;-46
2022/05/17 00:32:39;;;;;;;24.65;8.43;;;15.00;99.90;;;;;;5020612;28;20038;-47
2022/05/17 00:35:06;;;;;;;21.27;8.63;;;15.00;99.90;;;;;;5015923;28;20540;-50
2022/05/17 00:37:33;;;;;;;24.88;9.18;;;15.00;99.90;;;;;;4999558;28;20341;-46
2022/05/17 00:39:58;;;;;;;21.95;9.07;;;14.90;99.90;;;;;;4990142;28;20059;-45
2022/05/17 00:42:24;;;;;;;26.02;10.82;;;14.90;99.90;;;;;;5016550;28;20084;-50
2022/05/17 00:44:51;;;;;;;25.60;9.45;;;14.80;99.90;;;;;;4989244;28;20095;-45
2022/05/17 00:47:32;;;;;;;27.10;10.45;;;14.80;99.90;;;;;;5026004;28;20037;-47
2022/05/17 00:50:13;;;;;;;22.48;9.35;;;14.80;99.90;;;;;;5030248;28;20045;-47
2022/05/17 00:52:59;;;;;;;30.30;9.13;;;14.70;99.90;;;;;;5007689;28;20045;-47
2022/05/17 00:55:44;;;;;;;23.48;10.15;;;14.70;99.90;;;;;;5019102;28;20038;-49
2022/05/17 00:58:42;;;;;;;21.40;8.48;;;14.70;99.90;;;;;;5019174;28;20274;-46
2022/05/17 01:01:12;;;;;;;22.42;7.97;;;14.70;99.90;;;;;;4997486;28;20058;-48
2022/05/17 01:04:03;;;;;;;22.25;9.63;;;14.70;99.90;;;;;;5020075;28;20045;-50
2022/05/17 01:06:37;;;;;;;25.00;9.27;;;14.70;99.90;;;;;;5015995;28;20112;-46
2022/05/17 01:09:03;;;;;;;;;;;14.60;99.90;;;;;;5017786;28;20505;-49
2022/05/17 01:11:28;;;;;;;22.90;8.40;;;14.60;99.90;;;;;;5025424;28;19921;-50
2022/05/17 01:16:38;;;;;;;18.67;8.88;;;14.60;99.90;;;;;;5017173;28;20540;-47
2022/05/17 01:19:07;;;;;;;18.40;7.65;;;14.50;99.90;;;;;;5017908;28;20045;-47
2022/05/17 01:21:32;;;;;;;22.40;9.13;;;14.50;99.90;;;;;;5026727;28;20111;-46
2022/05/17 01:23:58;;;;;;;18.80;8.48;;;14.50;99.90;;;;;;4992376;28;20041;-49
2022/05/17 01:26:28;;;;;;;17.83;8.43;;;14.40;99.90;;;;;;5025871;28;20043;-46
2022/05/17 01:28:54;;;;;;;15.93;8.80;;;14.40;99.90;;;;;;4997180;28;20552;-46
2022/05/17 01:31:21;;;;;;;25.50;10.13;;;14.40;99.90;;;;;;5024550;28;20034;-46
2022/05/17 01:33:47;;;;;;;28.50;10.07;;;14.40;99.90;;;;;;5028611;28;20048;-48
2022/05/17 01:36:15;;;;;;;25.70;9.93;;;14.40;99.90;;;;;;5006854;28;20045;-46
2022/05/17 01:38:45;;;;;;;30.75;11.40;;;14.40;99.90;;;;;;5025966;28;20057;-47
2022/05/17 01:41:11;;;;;;;25.92;9.82;;;14.40;99.90;;;;;;5023118;28;20037;-46
2022/05/17 01:43:37;;;;;;;21.13;9.93;;;14.40;99.90;;;;;;5022632;28;20042;-46
2022/05/17 01:46:08;;;;;;;21.33;9.07;;;14.40;99.90;;;;;;5023093;28;20040;-47
2022/05/17 01:48:35;;;;;;;25.05;10.75;;;14.40;99.90;;;;;;5025978;28;20048;-47
2022/05/17 01:51:02;;;;;;;27.67;11.93;;;14.30;99.90;;;;;;5026252;28;20565;-46
2022/05/17 01:53:27;;;;;;;25.58;10.45;;;14.30;99.90;;;;;;5036328;28;20123;-44
2022/05/17 01:55:53;;;;;;;27.25;10.45;;;14.30;99.90;;;;;;5018001;28;20124;-43
2022/05/17 01:58:20;;;;;;;22.73;10.52;;;14.30;99.90;;;;;;5006562;28;20084;-45
2022/05/17 02:00:45;;;;;;;24.65;10.48;;;14.30;99.90;;;;;;4994351;28;20058;-46
2022/05/17 02:03:11;;;;;;;24.50;10.52;;;14.30;99.90;;;;;;5016893;28;20041;-46
2022/05/17 02:05:37;;;;;;;22.23;10.55;;;14.30;99.90;;;;;;5023798;28;20052;-45
2022/05/17 02:08:03;;;;;;;19.77;10.38;;;14.20;99.90;;;;;;5016729;28;20560;-45
2022/05/17 02:10:28;;;;;;;24.08;12.43;;;14.20;99.90;;;;;;5011242;28;20063;-46
2022/05/17 02:12:56;;;;;;;29.40;13.40;;;14.20;99.90;;;;;;5014341;28;20041;-44
2022/05/17 02:15:23;;;;;;;23.58;11.00;;;14.20;99.90;;;;;;5014158;28;20117;-44
2022/05/17 02:17:49;;;;;;;24.25;11.18;;;14.20;99.90;;;;;;5032961;28;20036;-46
2022/05/17 02:20:15;;;;;;;29.30;11.93;;;14.20;99.90;;;;;;5030071;28;20065;-46
2022/05/17 02:22:40;;;;;;;19.02;9.88;;;14.20;99.90;;;;;;5032277;28;20557;-45
2022/05/17 02:25:08;;;;;;;20.75;9.50;;;14.10;99.90;;;;;;5025726;28;20120;-47
2022/05/17 02:27:34;;;;;;;20.48;9.82;;;14.20;99.90;;;;;;5039047;28;20048;-46
2022/05/17 02:30:00;;;;;;;26.52;11.77;;;14.10;99.90;;;;;;5032480;28;20052;-46
2022/05/17 02:32:26;;;;;;;27.98;12.13;;;14.10;99.90;;;;;;5021391;28;20038;-48
2022/05/17 02:34:52;;;;;;;27.52;12.15;;;14.10;99.90;;;;;;5035069;28;20505;-47
2022/05/17 02:37:18;;;;;;;20.42;10.88;;;14.10;99.90;;;;;;5003674;28;20374;-47
2022/05/17 02:39:46;;;;;;;23.80;10.23;;;14.10;99.90;;;;;;5033704;28;20029;-45
2022/05/17 02:42:13;;;;;;;20.20;10.20;;;14.00;99.90;;;;;;5027987;28;20453;-46
2022/05/17 02:44:39;;;;;;;26.00;11.00;;;14.00;99.90;;;;;;5034564;28;20073;-48
2022/05/17 02:47:06;;;;;;;22.10;10.43;;;14.00;99.90;;;;;;5034553;28;20083;-46
2022/05/17 02:49:32;;;;;;;25.83;11.38;;;14.00;99.90;;;;;;5034013;28;20037;-45
2022/05/17 02:52:02;;;;;;;25.38;10.20;;;13.90;99.90;;;;;;5028184;28;20100;-47
2022/05/17 02:54:28;;;;;;;27.92;11.65;;;13.90;99.90;;;;;;5044371;28;20080;-45
2022/05/17 02:56:54;;;;;;;26.55;11.15;;;13.90;99.90;;;;;;5037532;28;20065;-47
2022/05/17 02:59:20;;;;;;;24.00;10.18;;;13.90;99.90;;;;;;5010072;28;20037;-46
2022/05/17 03:01:46;;;;;;;19.50;10.00;;;13.90;99.90;;;;;;5026279;28;20120;-46
2022/05/17 03:04:13;;;;;;;19.95;10.63;;;13.90;99.90;;;;;;5039005;28;20080;-46
2022/05/17 03:06:42;;;;;;;19.67;10.98;;;13.90;99.90;;;;;;5033252;28;20125;-46
2022/05/17 03:09:09;;;;;;;29.27;11.73;;;13.90;99.90;;;;;;5027568;28;20112;-48
2022/05/17 03:11:37;;;;;;;25.17;11.27;;;13.80;99.90;;;;;;5022630;28;20052;-47
2022/05/17 03:14:04;;;;;;;20.92;10.35;;;13.80;99.90;;;;;;5014645;28;20124;-46
2022/05/17 03:16:33;;;;;;;22.90;9.68;;;13.80;99.90;;;;;;5046417;28;20037;-46
2022/05/17 03:19:00;;;;;;;22.80;10.73;;;13.80;99.90;;;;;;5036052;28;20037;-48
2022/05/17 03:21:26;;;;;;;18.63;10.02;;;13.80;99.90;;;;;;5033669;28;20073;-47
2022/05/17 03:23:52;;;;;;;24.05;9.73;;;13.80;99.90;;;;;;5022975;28;20077;-49
2022/05/17 03:26:18;;;;;;;23.75;12.02;;;13.80;99.90;;;;;;5033619;28;20044;-48
2022/05/17 03:28:44;;;;;;;25.42;11.60;;;13.80;99.90;;;;;;5033451;28;20120;-48
2022/05/17 03:31:11;;;;;;;18.52;9.15;;;13.80;99.90;;;;;;5033835;28;20041;-47
2022/05/17 03:33:38;;;;;;;16.58;9.20;;;13.70;99.90;;;;;;5033684;28;20154;-47
2022/05/17 03:36:05;;;;;;;19.73;10.30;;;13.80;99.90;;;;;;5033564;28;20037;-47
2022/05/17 03:38:30;;;;;;;14.93;8.98;;;13.80;99.90;;;;;;5032360;28;20563;-48
2022/05/17 03:40:58;;;;;;;17.80;9.48;;;13.80;99.90;;;;;;5033504;28;20037;-47
2022/05/17 03:43:28;;;;;;;25.77;10.93;;;13.70;99.90;;;;;;5033439;28;20049;-48
2022/05/17 03:45:55;;;;;;;22.77;9.48;;;13.80;99.90;;;;;;5033130;28;20045;-49
2022/05/17 03:48:21;;;;;;;17.50;8.68;;;13.80;99.90;;;;;;5033538;28;20485;-50
2022/05/17 03:50:47;;;;;;;20.48;9.77;;;13.80;99.90;;;;;;5031795;28;20045;-50
2022/05/17 03:53:14;;;;;;;24.90;9.18;;;13.80;99.90;;;;;;5032081;28;20041;-49
2022/05/17 03:55:40;;;;;;;17.90;8.80;;;13.80;99.90;;;;;;5032580;28;20042;-48
2022/05/17 03:58:06;;;;;;;23.73;9.45;;;13.90;99.90;;;;;;5033326;28;20044;-50
2022/05/17 04:00:32;;;;;;;24.55;9.43;;;13.90;99.90;;;;;;5033417;28;20053;-49
2022/05/17 04:02:58;;;;;;;22.70;8.38;;;13.90;99.90;;;;;;5032947;28;20041;-48
2022/05/17 04:05:24;;;;;;;18.95;7.07;;;14.00;99.90;;;;;;5014960;28;20042;-48
2022/05/17 04:07:50;;;;;;;19.40;7.90;;;14.00;99.90;;;;;;5032983;28;20197;-47
2022/05/17 04:10:17;;;;;;;19.38;7.28;;;14.10;99.90;;;;;;5032746;28;20397;-48
2022/05/17 04:12:43;;;;;;;20.25;8.43;;;14.10;99.90;;;;;;5030666;28;20073;-44
2022/05/17 04:15:14;;;;;;;21.48;7.18;;;14.10;99.90;;;;;;5009444;28;20325;-44
2022/05/17 04:17:40;;;;;;;15.68;7.85;;;14.20;99.90;;;;;;5023802;28;20091;-45
2022/05/17 04:20:07;;;;;;;22.70;8.57;;;14.20;99.90;;;;;;5027564;28;21596;-44
2022/05/17 04:22:33;;;;;;;15.98;7.18;;;14.20;99.90;;;;;;5041457;22;20041;-44
2022/05/17 04:24:59;;;;;;;19.05;7.00;;;14.30;99.90;;;;;;4994985;28;20040;-45
2022/05/17 04:27:26;;;;;;;22.33;7.30;;;14.30;99.90;;;;;;5024461;28;20041;-44
2022/05/17 04:29:54;;;;;;;22.08;6.95;;;14.30;99.90;;;;;;5005427;28;20129;-48
2022/05/17 04:32:23;;;;;;;20.08;7.68;;;14.40;99.90;;;;;;5027450;28;20248;-46
2022/05/17 04:34:49;;;;;;;16.25;6.03;;;14.40;99.90;;;;;;5024350;28;20511;-45
2022/05/17 04:37:15;;;;;;;22.20;6.95;;;14.50;99.90;;;;;;5036943;28;20041;-45
2022/05/17 04:39:40;;;;;;;15.82;6.63;;;14.40;99.90;;;;;;5019543;28;20033;-46
2022/05/17 04:42:07;;;;;;;17.20;6.50;;;14.50;99.90;;;;;;5018892;28;20128;-45
2022/05/17 04:44:33;;;;;;;18.90;6.35;;;14.50;99.90;;;;;;5010959;28;20030;-44
2022/05/17 04:46:59;;;;;;;18.33;6.20;;;14.50;99.90;;;;;;5031741;28;20051;-46
2022/05/17 04:49:24;;;;;;;27.88;7.30;;;14.50;99.90;;;;;;5012736;28;20179;-44
2022/05/17 04:51:52;;;;;;;17.75;6.38;;;14.50;99.90;;;;;;4995199;28;20037;-45
2022/05/17 04:54:18;;;;;;;14.70;5.15;;;14.60;99.90;;;;;;5003956;28;20065;-43
2022/05/17 04:56:44;;;;;;;12.68;5.70;;;14.60;99.90;;;;;;5020038;28;20045;-45
2022/05/17 04:59:10;;;;;;;19.80;6.38;;;14.60;99.90;;;;;;5026133;28;20056;-45
2022/05/17 05:01:36;;;;;;;13.13;5.22;;;14.60;99.90;;;;;;5003085;28;20115;-44
2022/05/17 05:04:02;;;;;;;21.55;6.15;;;14.70;99.90;;;;;;5013160;28;20096;-45
2022/05/17 05:06:28;;;;;;;17.88;6.15;;;14.70;99.90;;;;;;5009937;28;20350;-44
2022/05/17 05:08:54;;;;;;;19.20;6.22;;;14.80;99.90;;;;;;5011426;28;20042;-44
2022/05/17 05:11:20;;;;;;;16.08;6.78;;;14.90;99.90;;;;;;5010822;28;20056;-46
2022/05/17 05:13:45;;;;;;;16.65;6.13;;;14.90;99.90;;;;;;5011038;28;20417;-45
2022/05/17 05:16:13;;;;;;;17.67;6.88;;;15.00;99.90;;;;;;5010772;28;20038;-44
2022/05/17 05:18:39;;;;;;;11.93;5.93;;;15.10;99.90;;;;;;5022173;28;20037;-44
2022/05/17 05:21:10;;;;;;;22.88;6.55;;;15.20;99.90;;;;;;5022004;28;20041;-45
2022/05/17 05:23:37;;;;;;;18.58;5.63;;;15.30;99.90;;;;;;5028520;28;20551;-44
2022/05/17 05:26:03;;;;;;;18.02;6.55;;;15.40;99.90;;;;;;5018258;28;20540;-44
2022/05/17 05:28:28;;;;;;;14.00;5.85;;;15.40;99.90;;;;;;5023081;28;20037;-45
2022/05/17 05:30:55;;;;;;;17.17;7.40;;;15.50;99.90;;;;;;5009883;28;20068;-45
2022/05/17 05:33:22;;;;;;;22.27;7.18;;;15.60;99.90;;;;;;5029573;28;20065;-44
2022/05/17 05:35:48;;;;;;;19.15;6.38;;;15.70;99.90;;;;;;5009645;28;20071;-44
2022/05/17 05:38:14;;;;;;;26.55;6.90;;;15.80;99.90;;;;;;5029049;28;20037;-44
2022/05/17 05:40:41;;;;;;;14.27;5.93;;;15.80;99.90;;;;;;5019395;28;20157;-45
2022/05/17 05:43:07;;;;;;;21.20;6.03;;;15.90;99.90;;;;;;5015908;28;20053;-44
2022/05/17 05:45:34;;;;;;;18.30;6.85;;;15.90;99.90;;;;;;5016316;28;20045;-44
2022/05/17 05:48:00;;;;;;;20.83;6.18;;;15.90;99.90;;;;;;5016322;28;20513;-45
2022/05/17 05:50:26;;;;;;;16.95;5.82;;;15.90;99.90;;;;;;5014321;28;20058;-46
2022/05/17 05:53:01;;;;;;;20.05;6.40;;;16.00;99.90;;;;;;5018606;28;20096;-46
2022/05/17 05:55:27;;;;;;;17.50;5.93;;;16.00;99.90;;;;;;5023671;28;20040;-46
2022/05/17 05:57:53;;;;;;;16.88;6.22;;;16.00;99.90;;;;;;5008981;28;20030;-45
2022/05/17 06:00:20;;;;;;;23.05;7.35;;;16.00;99.90;;;;;;5021802;28;20053;-44
2022/05/17 06:02:46;;;;;;;22.73;6.05;;;15.90;99.90;;;;;;5024375;28;20440;-44
2022/05/17 06:05:13;;;;;;;20.85;6.53;;;15.90;99.90;;;;;;5005097;28;20116;-44
2022/05/17 06:07:39;;;;;;;16.58;6.57;;;16.00;99.90;;;;;;5008931;28;20041;-45
2022/05/17 06:10:06;;;;;;;18.30;6.97;;;16.00;99.90;;;;;;5034850;28;20386;-41
2022/05/17 06:12:32;;;;;;;16.33;7.22;;;16.10;99.90;;;;;;5034550;28;20044;-41
2022/05/17 06:14:58;;;;;;;24.48;6.53;;;16.10;99.90;;;;;;5027990;28;20029;-42
2022/05/17 06:17:27;;;;;;;26.58;7.88;;;16.10;99.90;;;;;;5020697;28;20619;-42
2022/05/17 06:19:55;;;;;;;16.50;6.40;;;16.10;99.90;;;;;;5004678;28;20038;-42
2022/05/17 06:22:21;;;;;;;26.02;7.57;;;16.20;99.90;;;;;;5033934;28;20032;-42
2022/05/17 06:24:47;;;;;;;15.68;6.03;;;16.20;99.90;;;;;;5025470;28;20045;-43
2022/05/17 06:27:15;;;;;;;18.15;5.70;;;16.30;99.90;;;;;;5030295;28;20041;-41
2022/05/17 06:29:41;;;;;;;20.05;6.75;;;16.30;99.90;;;;;;5007255;28;20045;-43
2022/05/17 06:32:12;;;;;;;16.90;6.65;;;16.40;99.90;;;;;;5037706;28;20068;-43
2022/05/17 06:34:42;;;;;;;12.48;6.20;;;16.50;99.90;;;;;;5000463;28;20053;-42
2022/05/17 06:37:09;;;;;;;18.30;7.05;;;16.70;99.90;;;;;;5039791;28;20044;-43
2022/05/17 06:39:36;;;;;;;22.30;7.78;;;16.80;99.90;;;;;;5044874;28;20536;-45
2022/05/17 06:42:03;;;;;;;20.10;7.00;;;16.80;99.90;;;;;;5031290;28;20049;-42
2022/05/17 06:44:29;;;;;;;20.83;7.50;;;17.00;99.90;;;;;;5021262;28;20371;-41
2022/05/17 06:46:58;;;;;;;18.98;8.02;;;17.00;99.90;;;;;;5030612;28;20566;-42
2022/05/17 06:49:25;;;;;;;15.57;6.80;;;17.00;99.90;;;;;;5025760;28;20046;-44
2022/05/17 06:51:51;;;;;;;19.77;6.47;;;17.00;99.90;;;;;;5029203;28;20045;-45
2022/05/17 06:54:17;;;;;;;18.00;6.68;;;17.00;99.90;;;;;;5008414;28;20052;-43
2022/05/17 06:56:43;;;;;;;22.95;6.70;;;17.10;99.90;;;;;;5027795;28;20546;-44
2022/05/17 06:59:09;;;;;;;18.23;6.60;;;17.10;99.90;;;;;;5040185;28;20059;-41
2022/05/17 07:01:35;;;;;;;17.60;6.78;;;17.20;99.90;;;;;;5037176;28;20021;-44
2022/05/17 07:04:01;;;;;;;17.70;6.97;;;17.30;99.90;;;;;;5037363;28;20553;-42
2022/05/17 07:06:27;;;;;;;21.15;6.28;;;17.40;99.90;;;;;;5032507;28;20116;-46
2022/05/17 07:08:53;;;;;;;16.15;7.72;;;17.40;99.90;;;;;;5031775;28;20033;-46
2022/05/17 07:14:04;;;;;;;17.48;6.43;;;17.50;99.90;;;;;;5019674;28;20107;-47
2022/05/17 07:16:30;;;;;;;17.33;5.82;;;17.60;99.90;;;;;;5012524;28;20570;-43
2022/05/17 07:18:56;;;;;;;20.85;6.60;;;17.70;99.90;;;;;;5018119;28;20437;-47
2022/05/17 07:21:22;;;;;;;12.43;5.18;;;17.70;99.90;;;;;;5029961;28;20071;-49
2022/05/17 07:23:48;;;;;;;15.27;6.53;;;17.80;99.90;;;;;;5039955;28;20039;-47
2022/05/17 07:26:14;;;;;;;16.92;6.75;;;17.90;99.90;;;;;;5031659;28;20038;-43
2022/05/17 07:28:43;;;;;;;21.35;6.72;;;17.90;99.90;;;;;;5040254;28;20034;-43
2022/05/17 07:31:10;;;;;;;18.13;6.25;;;18.00;99.90;;;;;;5033481;28;20124;-44
2022/05/17 07:33:36;;;;;;;15.35;5.90;;;18.00;99.90;;;;;;5033311;28;20064;-44
2022/05/17 07:36:03;;;;;;;13.30;6.03;;;18.10;99.90;;;;;;5036595;28;20503;-47
2022/05/17 07:38:28;;;;;;;12.10;5.50;;;18.10;99.90;;;;;;5035348;28;20033;-45
2022/05/17 07:40:55;;;;;;;18.60;5.90;;;18.20;99.90;;;;;;5015087;28;20044;-43
2022/05/17 07:43:22;;;;;;;15.60;5.55;;;18.30;99.90;;;;;;5010960;28;20084;-50
2022/05/17 07:45:51;;;;;;;13.98;5.72;;;18.40;99.90;;;;;;5016714;28;20338;-43
2022/05/17 07:48:22;;;;;;;15.70;5.30;;;18.50;99.90;;;;;;5042357;28;20033;-45
2022/05/17 07:50:49;;;;;;;15.63;6.15;;;18.60;99.90;;;;;;5031920;28;20051;-44
2022/05/17 07:53:17;;;;;;;18.58;6.35;;;18.70;99.90;;;;;;5021048;28;20034;-47
2022/05/17 07:55:44;;;;;;;14.30;5.75;;;18.70;99.90;;;;;;5034372;28;20033;-47
2022/05/17 07:58:10;;;;;;;17.95;5.50;;;18.80;99.90;;;;;;5033094;28;20099;-45
2022/05/17 08:00:37;;;;;;;18.52;5.47;;;18.60;99.90;;;;;;5021195;28;20128;-46
2022/05/17 08:03:04;;;;;;;13.63;5.38;;;18.70;99.90;;;;;;5013683;28;20417;-46
2022/05/17 08:05:31;;;;;;;13.75;5.55;;;18.80;99.90;;;;;;5021672;28;20117;-49
2022/05/17 08:07:58;;;;;;;15.60;4.70;;;19.00;99.90;;;;;;5030353;28;20047;-47
2022/05/17 08:10:24;;;;;;;18.60;6.50;;;19.10;99.90;;;;;;5022855;28;20084;-48
2022/05/17 08:12:51;;;;;;;13.88;4.63;;;19.00;99.90;;;;;;5021585;28;20037;-47
2022/05/17 08:15:19;;;;;;;12.48;4.38;;;19.00;99.90;;;;;;5022963;28;20095;-46
2022/05/17 08:17:44;;;;;;;18.20;4.95;;;19.10;99.90;;;;;;5032926;28;20060;-46
2022/05/17 08:20:11;;;;;;;18.48;5.50;;;19.30;99.90;;;;;;5036338;28;20072;-47
2022/05/17 08:22:43;;;;;;;15.70;5.10;;;19.40;99.90;;;;;;5020169;28;20498;-45
2022/05/17 08:28:01;;;;;;;13.50;4.25;;;19.60;99.90;;;;;;5038349;28;20068;-46
2022/05/17 08:30:28;;;;;;;17.90;4.47;;;19.50;99.90;;;;;;5028422;28;20045;-46
2022/05/17 08:33:19;;;;;;;15.50;4.55;;;19.50;99.90;;;;;;5014448;28;20049;-46
2022/05/17 08:35:51;;;;;;;11.98;3.97;;;19.60;99.90;;;;;;5040248;28;20504;-47
2022/05/17 08:38:37;;;;;;;14.90;4.40;;;19.90;99.90;;;;;;5037543;28;20029;-46
2022/05/17 08:41:37;;;;;;;17.42;5.10;;;20.00;99.90;;;;;;5015235;28;20425;-46
2022/05/17 08:44:14;;;;;;;14.18;4.80;;;20.20;99.90;;;;;;5028876;28;20096;-47
2022/05/17 08:47:09;;;;;;;16.63;4.18;;;20.30;99.90;;;;;;5032333;28;20068;-46
2022/05/17 08:49:43;;;;;;;13.75;4.65;;;20.40;99.90;;;;;;5035110;28;20105;-47
2022/05/17 08:52:17;;;;;;;14.07;4.97;;;20.60;99.90;;;;;;5037142;28;20062;-47
2022/05/17 08:55:00;;;;;;;9.65;3.83;;;20.80;99.90;;;;;;5020192;28;20038;-48
2022/05/17 08:57:41;;;;;;;16.42;3.88;;;20.70;99.90;;;;;;5024418;28;20363;-46
2022/05/17 09:00:23;;;;;;;12.45;4.13;;;20.80;99.90;;;;;;5022252;28;20042;-47
2022/05/17 09:03:10;;;;;;;12.60;4.35;;;20.50;99.60;;;;;;5026305;28;20079;-47
2022/05/17 09:05:58;;;;;;;12.77;3.50;;;20.40;99.90;;;;;;5022162;28;20040;-49
2022/05/17 09:09:03;;;;;;;8.88;3.53;;;20.60;99.90;;;;;;5031306;28;20536;-46
2022/05/17 09:11:46;;;;;;;8.50;3.03;;;20.80;99.90;;;;;;5014122;28;20041;-45
2022/05/17 09:14:21;;;;;;;10.15;3.35;;;21.10;99.90;;;;;;5008098;28;20037;-46
2022/05/17 09:17:12;;;;;;;14.40;4.10;;;21.30;99.90;;;;;;5020815;28;20324;-47
2022/05/17 09:19:38;;;;;;;10.68;3.22;;;21.40;99.50;;;;;;5013745;28;20042;-47
2022/05/17 09:22:06;;;;;;;8.52;2.97;;;21.40;99.20;;;;;;5035946;28;20038;-47
2022/05/17 09:24:43;;;;;;;10.43;2.88;;;21.50;98.20;;;;;;5024422;28;20071;-47
2022/05/17 09:27:22;;;;;;;11.40;3.80;;;21.50;97.90;;;;;;5024893;28;20046;-47
2022/05/17 09:29:50;;;;;;;10.18;3.30;;;21.60;98.00;;;;;;5017694;28;20048;-47
2022/05/17 09:32:31;;;;;;;10.18;3.17;;;21.70;97.10;;;;;;5034991;28;20414;-47
2022/05/17 09:35:09;;;;;;;10.73;3.38;;;21.90;97.40;;;;;;5029324;28;20288;-47
2022/05/17 09:37:42;;;;;;;9.57;2.80;;;21.90;96.70;;;;;;5021925;28;20335;-47
2022/05/17 09:40:11;;;;;;;12.63;4.22;;;22.00;96.20;;;;;;5024283;28;20479;-50
2022/05/17 09:43:00;;;;;;;17.50;3.25;;;22.00;96.40;;;;;;5044998;28;20028;-46
2022/05/17 09:45:48;;;;;;;8.65;2.75;;;22.20;95.90;;;;;;5039537;28;20041;-47
2022/05/17 09:48:32;;;;;;;10.88;3.55;;;22.30;95.50;;;;;;5024116;28;20468;-48
2022/05/17 09:53:45;;;;;;;9.20;2.53;;;22.50;94.30;;;;;;5023222;28;20042;-49
2022/05/17 09:56:11;;;;;;;10.60;2.70;;;22.60;93.90;;;;;;5016375;28;20441;-47
2022/05/17 09:58:39;;;;;;;10.95;3.20;;;22.60;92.80;;;;;;5027555;28;20053;-47
2022/05/17 10:01:16;;;;;;;7.47;2.55;;;22.70;92.80;;;;;;5038707;28;20040;-48
2022/05/17 10:03:57;;;;;;;10.13;2.63;;;22.70;91.10;;;;;;5022950;28;20045;-49
2022/05/17 10:06:31;;;;;;;9.48;2.90;;;22.60;90.80;;;;;;5006825;28;20061;-47
2022/05/17 10:09:03;;;;;;;7.07;2.55;;;22.50;90.20;;;;;;5031801;28;20160;-50
2022/05/17 10:11:46;;;;;;;5.25;1.92;;;22.40;89.80;;;;;;5023924;28;20709;-49
2022/05/17 10:15:03;;;;;;;8.60;2.40;;;22.60;87.50;;;;;;5024817;28;20049;-48
2022/05/17 10:17:37;;;;;;;8.20;2.47;;;22.70;86.40;;;;;;4993279;28;20049;-47
2022/05/17 10:20:23;;;;;;;10.00;2.65;;;22.90;88.10;;;;;;5018757;28;20041;-46
2022/05/17 10:22:57;;;;;;;7.13;2.65;;;23.00;85.20;;;;;;5026783;28;20307;-49
2022/05/17 10:25:41;;;;;;;10.40;3.33;;;23.10;87.30;;;;;;5003535;28;20548;-46
2022/05/17 10:28:19;;;;;;;7.50;2.35;;;23.00;83.30;;;;;;5025363;28;20053;-46
2022/05/17 10:30:59;;;;;;;8.88;2.88;;;23.00;84.10;;;;;;4996413;28;20112;-48
2022/05/17 10:33:35;;;;;;;8.70;2.17;;;23.10;83.60;;;;;;5008071;28;20044;-48
2022/05/17 10:36:10;;;;;;;10.02;2.92;;;23.30;82.20;;;;;;5025329;28;20044;-46
2022/05/17 10:38:53;;;;;;;7.68;2.35;;;23.40;79.00;;;;;;5026997;28;20397;-51
2022/05/17 10:41:18;;;;;;;7.13;2.08;;;23.30;72.40;;;;;;5026553;28;20060;-46
2022/05/17 10:43:48;;;;;;;10.52;2.55;;;23.30;77.50;;;;;;5021874;28;22718;-46
2022/05/17 10:46:19;;;;;;;9.18;2.65;;;23.50;77.10;;;;;;5020730;28;20050;-46
2022/05/17 10:48:50;;;;;;;7.60;2.20;;;23.60;77.50;;;;;;5020461;28;20034;-49
2022/05/17 10:51:29;;;;;;;11.18;2.45;;;23.70;78.00;;;;;;5032978;28;20049;-47
2022/05/17 10:54:00;;;;;;;7.70;2.30;;;23.80;75.30;;;;;;5022772;28;20128;-46
2022/05/17 10:56:40;;;;;;;5.75;1.85;;;23.80;74.10;;;;;;4999379;28;20049;-46
2022/05/17 10:59:36;;;;;;;9.35;3.17;;;23.70;72.80;;;;;;5019315;28;20131;-47
2022/05/17 11:02:15;;;;;;;8.13;2.40;;;23.80;72.40;;;;;;5022694;28;20490;-47
2022/05/17 11:05:01;;;;;;;8.05;1.90;;;23.80;70.40;;;;;;5023487;28;20056;-48
2022/05/17 11:07:57;;;;;;;6.57;1.48;;;24.00;70.40;;;;;;5018297;28;20041;-50
2022/05/17 11:10:35;;;;;;;7.25;2.03;;;24.20;71.10;;;;;;5004877;28;20045;-47
2022/05/17 11:13:25;;;;;;;8.55;2.50;;;24.50;69.50;;;;;;5016202;28;20077;-48
2022/05/17 11:16:05;;;;;;;6.85;2.05;;;24.60;64.70;;;;;;5019333;28;20053;-47
2022/05/17 11:19:15;;;;;;;5.80;1.52;;;24.50;62.30;;;;;;5026610;28;20068;-47
2022/05/17 11:22:12;;;;;;;4.88;1.70;;;24.10;61.40;;;;;;5034256;28;20046;-46
2022/05/17 11:25:09;;;;;;;8.25;2.08;;;24.10;60.20;;;;;;5019177;28;20037;-48
2022/05/17 11:28:07;;;;;;;8.57;2.08;;;23.90;60.80;;;;;;5018833;28;20449;-47
2022/05/17 11:30:56;;;;;;;7.00;1.73;;;24.10;64.20;;;;;;4977399;28;20087;-47
2022/05/17 11:33:36;;;;;;;7.53;1.98;;;24.30;64.10;;;;;;5016167;28;20050;-48
2022/05/17 11:36:04;;;;;;;5.68;1.40;;;24.60;63.40;;;;;;5021902;28;20524;-48
2022/05/17 11:38:33;;;;;;;5.35;1.85;;;24.80;61.00;;;;;;5016822;28;20041;-47
2022/05/17 11:41:17;;;;;;;5.13;1.30;;;24.90;61.70;;;;;;5017812;28;20068;-47
2022/05/17 11:43:45;;;;;;;6.85;1.95;;;25.10;61.40;;;;;;5019730;28;20465;-47
2022/05/17 11:46:29;;;;;;;8.85;2.80;;;25.10;59.80;;;;;;5018559;28;20095;-46
2022/05/17 11:49:11;;;;;;;7.22;2.17;;;25.20;60.70;;;;;;5021216;28;20042;-50
2022/05/17 11:51:40;;;;;;;5.93;1.80;;;25.30;62.00;;;;;;5022304;28;20045;-48
2022/05/17 11:54:10;;;;;;;6.28;2.25;;;25.50;61.80;;;;;;4996583;28;20129;-46
2022/05/17 11:56:39;;;;;;;6.38;2.42;;;25.80;62.70;;;;;;5020351;28;20049;-46
2022/05/17 11:59:08;;;;;;;8.48;2.08;;;26.00;62.40;;;;;;5019123;28;20049;-47
2022/05/17 12:01:37;;;;;;;5.68;1.80;;;26.20;61.60;;;;;;5021163;28;20041;-45
2022/05/17 12:04:20;;;;;;;5.63;1.95;;;26.20;62.50;;;;;;5020311;28;20045;-45
2022/05/17 12:06:49;;;;;;;6.03;1.70;;;26.30;61.20;;;;;;5020912;28;20091;-45
2022/05/17 12:09:36;;;;;;;5.90;2.33;;;26.50;62.60;;;;;;5019270;28;20033;-46
2022/05/17 12:12:27;;;;;;;7.95;2.30;;;26.50;60.30;;;;;;4998170;28;20061;-47
2022/05/17 12:15:17;;;;;;;8.63;2.50;;;26.60;60.50;;;;;;5019492;28;20112;-45
2022/05/17 12:17:46;;;;;;;7.68;2.00;;;26.70;59.30;;;;;;5018025;28;20500;-46
2022/05/17 12:20:28;;;;;;;6.95;2.15;;;26.70;61.10;;;;;;5020035;28;20033;-45
2022/05/17 12:23:31;;;;;;;7.25;2.60;;;26.90;61.70;;;;;;5032136;28;20404;-46
2022/05/17 12:26:05;;;;;;;8.88;2.08;;;27.00;60.20;;;;;;5016116;28;20480;-45
2022/05/17 12:28:39;;;;;;;7.82;2.30;;;27.10;59.60;;;;;;5013785;28;20048;-45
2022/05/17 12:31:11;;;;;;;6.72;2.00;;;27.00;58.10;;;;;;5024076;28;20433;-48
2022/05/17 12:33:47;;;;;;;7.03;2.15;;;27.10;58.30;;;;;;5014949;28;20046;-45
2022/05/17 12:36:27;;;;;;;8.25;2.38;;;27.10;57.50;;;;;;5020490;28;20045;-46
2022/05/17 12:44:52;;;;;;;5.53;1.55;;;26.80;53.30;;;;;;5005706;28;20575;-46
2022/05/17 12:47:25;;;;;;;6.20;2.28;;;26.60;57.20;;;;;;5019161;28;20060;-46
2022/05/17 12:49:53;;;;;;;7.15;1.83;;;26.70;58.50;;;;;;5017726;28;20037;-46
2022/05/17 12:52:32;;;;;;;7.55;2.30;;;27.00;56.00;;;;;;4998312;28;20049;-44
2022/05/17 12:55:21;;;;;;;7.38;1.85;;;27.00;56.70;;;;;;5019556;28;20112;-43
2022/05/17 12:57:47;;;;;;;5.47;1.55;;;27.00;57.40;;;;;;5019954;28;20042;-45
2022/05/17 13:00:29;;;;;;;7.82;2.47;;;27.10;58.60;;;;;;5021219;28;20043;-48
2022/05/17 13:03:02;;;;;;;9.07;2.58;;;27.40;56.60;;;;;;5006971;28;20038;-46
2022/05/17 13:05:29;;;;;;;4.95;1.83;;;27.70;56.10;;;;;;5034200;28;20103;-48
2022/05/17 13:08:06;;;;;;;7.32;2.30;;;27.90;57.00;;;;;;5026521;28;20045;-45
2022/05/17 13:10:38;;;;;;;6.80;2.28;;;28.00;56.60;;;;;;5016687;28;20039;-44
2022/05/17 13:13:21;;;;;;;7.85;1.83;;;28.00;54.70;;;;;;5019612;28;20413;-45
2022/05/17 13:15:50;;;;;;;8.68;1.90;;;27.80;53.90;;;;;;5030065;28;20034;-45